Астрахань

Карта отелей и гостиниц, располагающихся рядом с аэропортом Астрахань :

Астрахань Астраханская область 46° 16' 59.6388" N, 48° 0' 22.3812" E
Код аэродрома ИКАО
URWA
Код аэродрома RU
УРВА
Координаты
N46.28323° E048.00622°
Превышение над уровнем моря
-20
Основная полоса
09/27
Курс магнитный
088,5/268,5
Длина основной ВПП
3200
Ширина основной ВПП
45
Покрытие основной ВПП
Твёрдое (железобетон)
Освещение ВПП
Постоянное
Тип: 
Аэродром
Класс аэродрома: 
Международный
Принадлежность: 
ГА
Статус: 
Действующий
Сайт: 
аэропортастрахань.рф
E-mail аэродрома: 
mail@airport.astrakhan.ru
Страна: 
Россия
Регион: 
Астраханская область
Дополнительная информация: 
Оператор: ОАО «Аэропорт Астрахань». Аэропорт федерального значения, расположенный на южной окраине г. Астрахани в 8 км южнее центра города. До начала 2000-х годов носил наименование «Нариманово». Максимальный взлётный вес воздушного судна: 191 тонна. Классификационное число ВПП (PCN) 63/F/C/Х/T. Оборудование аэродрома позволяет выполнять посадку ВС по метеоминимуму I-й категории ИКАО (800х60м). ДПРМ: 650-GV, БПРМ: 315-G с МК=089°.
Погода: 

Авиационная погода в Астрахани

Регион: 
Погода METAR: 
URWA 282200Z 27003MPS 9999 SCT040CB 23/11 Q1009 R27/010070 NOSIG RMK QFE758/1011
Время наблюдения
2022-06-28T22:00:00Z
Температура C
23.0
Точка росы
11.0
Направление ветра
270
Скорость ветра (узлы)
6
Метео видимость
6.21
Облачность
SCT
Нижняя граница облачности (футы)
4000
Явления погоды
Условия полета
VFR
Аэропорт подробнее: 
SCT – разбросанная отдельная облачность;

Найти трансфер

С помощью этой формы Вы можете найти трансфер из аэропорта Астрахань в город, аэропорт или вокзал:

Погода в аэропортах:

Авиационная погода в Игнатьево

Регион: 
Погода METAR: 
UHBB 282200Z 35002MPS 0150 0100W R36/M0200N FG VV002 18/18 Q1003 R36/090060 NOSIG RMK QBB060 QFE735/0980
Время наблюдения
2022-06-28T22:00:00Z
Температура C
18.0
Точка росы
18.0
Направление ветра
350
Скорость ветра (узлы)
4
Метео видимость
0.09
Облачность
OVX
Нижняя граница облачности (футы)
0
Явления погоды
FG
Условия полета
LIFR
Аэропорт подробнее: 
FG – туман (небо не видно, температура воздуха выше нуля или ноль);

Авиационная погода в Бухте Провидения

Погода METAR: 
UHMD 282200Z 20004MPS 2500 BR OVC003 06/05 Q1018 RMK QBB110 MT OBSC QFE763/1017
Время наблюдения
2022-06-28T22:00:00Z
Температура C
6.0
Точка росы
5.0
Направление ветра
200
Скорость ветра (узлы)
8
Метео видимость
1.55
Облачность
OVC
Нижняя граница облачности (футы)
300
Явления погоды
BR
Условия полета
LIFR
Аэропорт подробнее: 
OVC – сплошная облачность;
BR – дымка (видимость от 1 до 9 км);

Авиационная погода в Мирном

Регион: 
Погода METAR: 
UERR 282200Z 06003MPS 0700 FG VV003 10/10 Q1000 R07/CLRD60 TEMPO 0300 FG VV001 RMK QBB070 QFE720/0960
Время наблюдения
2022-06-28T22:00:00Z
Температура C
10.0
Точка росы
10.0
Направление ветра
60
Скорость ветра (узлы)
6
Метео видимость
0.43
Облачность
OVX
Нижняя граница облачности (футы)
0
Явления погоды
FG
Условия полета
LIFR
Аэропорт подробнее: 
FG – туман (небо не видно, температура воздуха выше нуля или ноль);

Авиационная погода в Кокшетау

Регион: 
Погода METAR: 
UACK 040530Z 07006MPS 9999 -RA OVC074 14/12 Q0999 NOSIG RMK QFE725/0967
Время наблюдения
2022-07-04T05:30:00Z
Температура C
14.0
Точка росы
12.0
Направление ветра
70
Скорость ветра (узлы)
12
Метео видимость
6.21
Облачность
OVC
Нижняя граница облачности (футы)
7400
Явления погоды
-RA
Условия полета
VFR
Аэропорт подробнее: 
OVC – сплошная облачность;
-RA - слабый дождь;